sensor_id;sensor_type;location;lat;lon;timestamp;P1;durP1;ratioP1;P2;durP2;ratioP2
7965;SDS011;4028;43.272;26.932;2022-07-30T00:01:34;5.55;;;5.10;;
7965;SDS011;4028;43.272;26.932;2022-07-30T00:04:00;6.55;;;5.93;;
7965;SDS011;4028;43.272;26.932;2022-07-30T00:06:25;7.20;;;6.03;;
7965;SDS011;4028;43.272;26.932;2022-07-30T00:08:51;6.10;;;5.57;;
7965;SDS011;4028;43.272;26.932;2022-07-30T00:11:16;6.38;;;5.78;;
7965;SDS011;4028;43.272;26.932;2022-07-30T00:13:42;6.95;;;6.00;;
7965;SDS011;4028;43.272;26.932;2022-07-30T00:16:07;8.85;;;6.22;;
7965;SDS011;4028;43.272;26.932;2022-07-30T00:18:33;6.47;;;5.32;;
7965;SDS011;4028;43.272;26.932;2022-07-30T00:20:58;6.20;;;5.10;;
7965;SDS011;4028;43.272;26.932;2022-07-30T00:23:24;6.18;;;5.60;;
7965;SDS011;4028;43.272;26.932;2022-07-30T00:25:49;6.60;;;5.32;;
7965;SDS011;4028;43.272;26.932;2022-07-30T00:28:14;8.85;;;6.22;;
7965;SDS011;4028;43.272;26.932;2022-07-30T00:30:40;6.53;;;5.85;;
7965;SDS011;4028;43.272;26.932;2022-07-30T00:33:05;7.13;;;6.15;;
7965;SDS011;4028;43.272;26.932;2022-07-30T00:35:31;7.43;;;5.00;;
7965;SDS011;4028;43.272;26.932;2022-07-30T00:37:57;8.27;;;6.30;;
7965;SDS011;4028;43.272;26.932;2022-07-30T00:40:22;5.72;;;5.30;;
7965;SDS011;4028;43.272;26.932;2022-07-30T00:42:48;7.82;;;5.75;;
7965;SDS011;4028;43.272;26.932;2022-07-30T00:45:14;8.27;;;5.70;;
7965;SDS011;4028;43.272;26.932;2022-07-30T00:47:40;7.07;;;5.85;;
7965;SDS011;4028;43.272;26.932;2022-07-30T00:50:07;6.22;;;5.72;;
7965;SDS011;4028;43.272;26.932;2022-07-30T00:52:34;7.53;;;5.93;;
7965;SDS011;4028;43.272;26.932;2022-07-30T00:55:02;7.25;;;6.05;;
7965;SDS011;4028;43.272;26.932;2022-07-30T00:57:28;7.18;;;5.60;;
7965;SDS011;4028;43.272;26.932;2022-07-30T00:59:54;7.72;;;6.18;;
7965;SDS011;4028;43.272;26.932;2022-07-30T01:02:20;7.35;;;5.95;;
7965;SDS011;4028;43.272;26.932;2022-07-30T01:04:45;8.70;;;6.72;;
7965;SDS011;4028;43.272;26.932;2022-07-30T01:07:11;7.20;;;6.03;;
7965;SDS011;4028;43.272;26.932;2022-07-30T01:09:37;7.38;;;6.60;;
7965;SDS011;4028;43.272;26.932;2022-07-30T01:12:03;10.40;;;6.03;;
7965;SDS011;4028;43.272;26.932;2022-07-30T01:14:31;10.60;;;6.40;;
7965;SDS011;4028;43.272;26.932;2022-07-30T01:16:58;8.70;;;6.20;;
7965;SDS011;4028;43.272;26.932;2022-07-30T01:19:24;7.70;;;6.65;;
7965;SDS011;4028;43.272;26.932;2022-07-30T01:30:34;6.65;;;6.05;;
7965;SDS011;4028;43.272;26.932;2022-07-30T01:33:03;7.55;;;6.80;;
7965;SDS011;4028;43.272;26.932;2022-07-30T01:35:32;8.90;;;6.40;;
7965;SDS011;4028;43.272;26.932;2022-07-30T01:37:59;6.90;;;6.20;;
7965;SDS011;4028;43.272;26.932;2022-07-30T01:40:27;7.32;;;6.43;;
7965;SDS011;4028;43.272;26.932;2022-07-30T01:42:54;10.25;;;6.38;;
7965;SDS011;4028;43.272;26.932;2022-07-30T01:45:23;7.88;;;6.32;;
7965;SDS011;4028;43.272;26.932;2022-07-30T01:47:53;8.05;;;6.50;;
7965;SDS011;4028;43.272;26.932;2022-07-30T01:50:21;7.07;;;6.38;;
7965;SDS011;4028;43.272;26.932;2022-07-30T01:52:47;6.80;;;6.10;;
7965;SDS011;4028;43.272;26.932;2022-07-30T01:55:17;7.43;;;6.38;;
7965;SDS011;4028;43.272;26.932;2022-07-30T01:57:47;9.70;;;6.85;;
7965;SDS011;4028;43.272;26.932;2022-07-30T02:00:13;9.10;;;7.20;;
7965;SDS011;4028;43.272;26.932;2022-07-30T02:02:41;11.07;;;8.00;;
7965;SDS011;4028;43.272;26.932;2022-07-30T02:05:07;10.50;;;7.72;;
7965;SDS011;4028;43.272;26.932;2022-07-30T02:10:04;10.00;;;8.80;;
7965;SDS011;4028;43.272;26.932;2022-07-30T02:12:35;9.02;;;8.05;;
7965;SDS011;4028;43.272;26.932;2022-07-30T02:17:53;9.13;;;7.65;;
7965;SDS011;4028;43.272;26.932;2022-07-30T02:20:25;10.18;;;8.00;;
7965;SDS011;4028;43.272;26.932;2022-07-30T02:22:54;12.60;;;8.20;;
7965;SDS011;4028;43.272;26.932;2022-07-30T02:25:31;8.88;;;8.13;;
7965;SDS011;4028;43.272;26.932;2022-07-30T02:27:59;9.45;;;7.75;;
7965;SDS011;4028;43.272;26.932;2022-07-30T02:30:30;9.18;;;7.57;;
7965;SDS011;4028;43.272;26.932;2022-07-30T02:33:00;9.98;;;7.18;;
7965;SDS011;4028;43.272;26.932;2022-07-30T02:35:29;8.60;;;7.75;;
7965;SDS011;4028;43.272;26.932;2022-07-30T02:37:56;9.05;;;7.80;;
7965;SDS011;4028;43.272;26.932;2022-07-30T02:40:24;9.52;;;7.97;;
7965;SDS011;4028;43.272;26.932;2022-07-30T02:42:51;8.65;;;7.78;;
7965;SDS011;4028;43.272;26.932;2022-07-30T02:45:17;10.30;;;9.30;;
7965;SDS011;4028;43.272;26.932;2022-07-30T02:47:48;9.55;;;8.65;;
7965;SDS011;4028;43.272;26.932;2022-07-30T02:50:17;10.27;;;9.13;;
7965;SDS011;4028;43.272;26.932;2022-07-30T02:52:44;10.98;;;9.90;;
7965;SDS011;4028;43.272;26.932;2022-07-30T02:55:11;11.90;;;10.63;;
7965;SDS011;4028;43.272;26.932;2022-07-30T02:57:39;12.63;;;10.20;;
7965;SDS011;4028;43.272;26.932;2022-07-30T03:00:06;11.35;;;10.23;;
7965;SDS011;4028;43.272;26.932;2022-07-30T03:02:33;12.15;;;10.43;;
7965;SDS011;4028;43.272;26.932;2022-07-30T03:05:00;12.57;;;11.27;;
7965;SDS011;4028;43.272;26.932;2022-07-30T03:07:28;13.38;;;10.73;;
7965;SDS011;4028;43.272;26.932;2022-07-30T03:09:54;10.57;;;9.52;;
7965;SDS011;4028;43.272;26.932;2022-07-30T03:12:21;15.38;;;10.35;;
7965;SDS011;4028;43.272;26.932;2022-07-30T03:14:49;11.73;;;10.63;;
7965;SDS011;4028;43.272;26.932;2022-07-30T03:17:16;13.63;;;10.80;;
7965;SDS011;4028;43.272;26.932;2022-07-30T03:19:43;10.35;;;9.35;;
7965;SDS011;4028;43.272;26.932;2022-07-30T03:22:11;12.13;;;10.57;;
7965;SDS011;4028;43.272;26.932;2022-07-30T03:24:38;11.35;;;10.25;;
7965;SDS011;4028;43.272;26.932;2022-07-30T03:27:07;11.43;;;10.32;;
7965;SDS011;4028;43.272;26.932;2022-07-30T03:29:34;13.77;;;11.23;;
7965;SDS011;4028;43.272;26.932;2022-07-30T03:32:01;11.48;;;10.38;;
7965;SDS011;4028;43.272;26.932;2022-07-30T03:34:30;10.55;;;9.63;;
7965;SDS011;4028;43.272;26.932;2022-07-30T03:36:58;11.40;;;10.20;;
7965;SDS011;4028;43.272;26.932;2022-07-30T03:39:25;12.07;;;10.88;;
7965;SDS011;4028;43.272;26.932;2022-07-30T03:41:51;12.43;;;10.65;;
7965;SDS011;4028;43.272;26.932;2022-07-30T03:44:19;11.38;;;10.15;;
7965;SDS011;4028;43.272;26.932;2022-07-30T03:46:45;11.52;;;10.40;;
7965;SDS011;4028;43.272;26.932;2022-07-30T03:49:14;13.95;;;11.23;;
7965;SDS011;4028;43.272;26.932;2022-07-30T03:51:40;11.15;;;10.05;;
7965;SDS011;4028;43.272;26.932;2022-07-30T03:54:06;12.95;;;11.38;;
7965;SDS011;4028;43.272;26.932;2022-07-30T03:56:35;12.73;;;11.43;;
7965;SDS011;4028;43.272;26.932;2022-07-30T03:59:02;12.73;;;11.52;;
7965;SDS011;4028;43.272;26.932;2022-07-30T04:01:28;13.85;;;12.30;;
7965;SDS011;4028;43.272;26.932;2022-07-30T04:03:54;12.98;;;11.77;;
7965;SDS011;4028;43.272;26.932;2022-07-30T04:06:20;14.02;;;12.73;;
7965;SDS011;4028;43.272;26.932;2022-07-30T04:08:46;12.77;;;11.45;;
7965;SDS011;4028;43.272;26.932;2022-07-30T04:11:11;12.40;;;11.05;;
7965;SDS011;4028;43.272;26.932;2022-07-30T04:13:37;12.82;;;11.55;;
7965;SDS011;4028;43.272;26.932;2022-07-30T04:16:09;12.60;;;11.45;;
7965;SDS011;4028;43.272;26.932;2022-07-30T04:18:43;11.63;;;10.55;;
7965;SDS011;4028;43.272;26.932;2022-07-30T04:21:14;11.63;;;10.63;;
7965;SDS011;4028;43.272;26.932;2022-07-30T04:23:42;13.65;;;11.43;;
7965;SDS011;4028;43.272;26.932;2022-07-30T04:26:09;11.15;;;10.15;;
7965;SDS011;4028;43.272;26.932;2022-07-30T04:28:35;13.43;;;11.30;;
7965;SDS011;4028;43.272;26.932;2022-07-30T04:31:02;11.85;;;10.18;;
7965;SDS011;4028;43.272;26.932;2022-07-30T04:33:29;11.75;;;10.65;;
7965;SDS011;4028;43.272;26.932;2022-07-30T04:35:54;11.88;;;10.77;;
7965;SDS011;4028;43.272;26.932;2022-07-30T04:38:20;12.13;;;10.57;;
7965;SDS011;4028;43.272;26.932;2022-07-30T04:40:45;11.52;;;10.52;;
7965;SDS011;4028;43.272;26.932;2022-07-30T04:43:11;12.35;;;11.15;;
7965;SDS011;4028;43.272;26.932;2022-07-30T04:45:38;12.02;;;10.82;;
7965;SDS011;4028;43.272;26.932;2022-07-30T04:48:04;13.73;;;9.98;;
7965;SDS011;4028;43.272;26.932;2022-07-30T04:50:30;12.10;;;10.75;;
7965;SDS011;4028;43.272;26.932;2022-07-30T04:52:59;15.85;;;11.20;;
7965;SDS011;4028;43.272;26.932;2022-07-30T04:55:26;11.20;;;10.15;;
7965;SDS011;4028;43.272;26.932;2022-07-30T04:57:52;11.85;;;10.60;;
7965;SDS011;4028;43.272;26.932;2022-07-30T05:00:19;12.63;;;11.43;;
7965;SDS011;4028;43.272;26.932;2022-07-30T05:02:45;12.52;;;11.23;;
7965;SDS011;4028;43.272;26.932;2022-07-30T05:05:13;12.55;;;11.45;;
7965;SDS011;4028;43.272;26.932;2022-07-30T05:07:40;12.52;;;11.38;;
7965;SDS011;4028;43.272;26.932;2022-07-30T05:10:07;15.48;;;11.25;;
7965;SDS011;4028;43.272;26.932;2022-07-30T05:12:35;15.98;;;12.05;;
7965;SDS011;4028;43.272;26.932;2022-07-30T05:15:04;12.55;;;11.30;;
7965;SDS011;4028;43.272;26.932;2022-07-30T05:17:31;12.80;;;11.45;;
7965;SDS011;4028;43.272;26.932;2022-07-30T05:19:57;13.68;;;12.27;;
7965;SDS011;4028;43.272;26.932;2022-07-30T05:22:23;15.60;;;11.70;;
7965;SDS011;4028;43.272;26.932;2022-07-30T05:24:51;13.70;;;12.38;;
7965;SDS011;4028;43.272;26.932;2022-07-30T05:27:17;13.82;;;12.63;;
7965;SDS011;4028;43.272;26.932;2022-07-30T05:29:44;14.18;;;12.77;;
7965;SDS011;4028;43.272;26.932;2022-07-30T05:32:10;14.15;;;12.68;;
7965;SDS011;4028;43.272;26.932;2022-07-30T05:34:36;13.35;;;12.05;;
7965;SDS011;4028;43.272;26.932;2022-07-30T05:37:01;13.38;;;12.18;;
7965;SDS011;4028;43.272;26.932;2022-07-30T05:39:27;13.55;;;12.35;;
7965;SDS011;4028;43.272;26.932;2022-07-30T05:41:53;13.88;;;12.50;;
7965;SDS011;4028;43.272;26.932;2022-07-30T05:44:19;14.85;;;12.25;;
7965;SDS011;4028;43.272;26.932;2022-07-30T05:46:44;14.65;;;12.73;;
7965;SDS011;4028;43.272;26.932;2022-07-30T05:49:10;14.35;;;13.05;;
7965;SDS011;4028;43.272;26.932;2022-07-30T05:51:35;15.90;;;12.77;;
7965;SDS011;4028;43.272;26.932;2022-07-30T05:54:01;13.77;;;12.25;;
7965;SDS011;4028;43.272;26.932;2022-07-30T05:56:26;13.35;;;12.07;;
7965;SDS011;4028;43.272;26.932;2022-07-30T05:58:52;17.08;;;12.75;;
7965;SDS011;4028;43.272;26.932;2022-07-30T06:01:17;13.15;;;11.88;;
7965;SDS011;4028;43.272;26.932;2022-07-30T06:03:43;14.13;;;12.73;;
7965;SDS011;4028;43.272;26.932;2022-07-30T06:06:08;14.00;;;12.77;;
7965;SDS011;4028;43.272;26.932;2022-07-30T06:08:34;13.93;;;12.20;;
7965;SDS011;4028;43.272;26.932;2022-07-30T06:10:59;13.05;;;11.82;;
7965;SDS011;4028;43.272;26.932;2022-07-30T06:13:25;13.57;;;11.85;;
7965;SDS011;4028;43.272;26.932;2022-07-30T06:15:51;12.40;;;11.20;;
7965;SDS011;4028;43.272;26.932;2022-07-30T06:18:16;12.25;;;11.15;;
7965;SDS011;4028;43.272;26.932;2022-07-30T06:20:41;13.40;;;11.38;;
7965;SDS011;4028;43.272;26.932;2022-07-30T06:23:07;11.98;;;10.70;;
7965;SDS011;4028;43.272;26.932;2022-07-30T06:25:32;12.85;;;11.65;;
7965;SDS011;4028;43.272;26.932;2022-07-30T06:27:58;12.55;;;11.27;;
7965;SDS011;4028;43.272;26.932;2022-07-30T06:30:23;12.82;;;11.50;;
7965;SDS011;4028;43.272;26.932;2022-07-30T06:32:49;13.27;;;11.98;;
7965;SDS011;4028;43.272;26.932;2022-07-30T06:35:14;13.00;;;11.45;;
7965;SDS011;4028;43.272;26.932;2022-07-30T06:37:40;13.18;;;12.00;;
7965;SDS011;4028;43.272;26.932;2022-07-30T06:40:07;13.05;;;11.75;;
7965;SDS011;4028;43.272;26.932;2022-07-30T06:42:33;12.57;;;11.48;;
7965;SDS011;4028;43.272;26.932;2022-07-30T06:44:58;12.30;;;11.10;;
7965;SDS011;4028;43.272;26.932;2022-07-30T06:47:24;12.13;;;10.93;;
7965;SDS011;4028;43.272;26.932;2022-07-30T06:49:56;13.77;;;11.32;;
7965;SDS011;4028;43.272;26.932;2022-07-30T06:52:22;12.75;;;10.45;;
7965;SDS011;4028;43.272;26.932;2022-07-30T06:54:48;11.20;;;10.20;;
7965;SDS011;4028;43.272;26.932;2022-07-30T06:57:14;11.40;;;10.30;;
7965;SDS011;4028;43.272;26.932;2022-07-30T06:59:40;11.98;;;10.77;;
7965;SDS011;4028;43.272;26.932;2022-07-30T07:02:05;13.98;;;11.07;;
7965;SDS011;4028;43.272;26.932;2022-07-30T07:04:31;13.35;;;10.80;;
7965;SDS011;4028;43.272;26.932;2022-07-30T07:06:57;12.90;;;11.57;;
7965;SDS011;4028;43.272;26.932;2022-07-30T07:09:22;13.05;;;11.95;;
7965;SDS011;4028;43.272;26.932;2022-07-30T07:11:48;14.80;;;11.13;;
7965;SDS011;4028;43.272;26.932;2022-07-30T07:14:13;12.68;;;11.18;;
7965;SDS011;4028;43.272;26.932;2022-07-30T07:16:39;12.93;;;10.15;;
7965;SDS011;4028;43.272;26.932;2022-07-30T07:19:04;13.35;;;10.80;;
7965;SDS011;4028;43.272;26.932;2022-07-30T07:21:30;14.40;;;9.73;;
7965;SDS011;4028;43.272;26.932;2022-07-30T07:23:56;11.15;;;9.90;;
7965;SDS011;4028;43.272;26.932;2022-07-30T07:26:24;10.27;;;9.20;;
7965;SDS011;4028;43.272;26.932;2022-07-30T07:28:50;10.23;;;9.23;;
7965;SDS011;4028;43.272;26.932;2022-07-30T07:31:16;10.35;;;9.40;;
7965;SDS011;4028;43.272;26.932;2022-07-30T07:33:41;12.18;;;10.88;;
7965;SDS011;4028;43.272;26.932;2022-07-30T07:36:07;12.50;;;9.90;;
7965;SDS011;4028;43.272;26.932;2022-07-30T07:38:32;10.70;;;9.80;;
7965;SDS011;4028;43.272;26.932;2022-07-30T07:40:58;10.90;;;9.77;;
7965;SDS011;4028;43.272;26.932;2022-07-30T07:43:24;13.52;;;10.05;;
7965;SDS011;4028;43.272;26.932;2022-07-30T07:45:49;11.35;;;10.25;;
7965;SDS011;4028;43.272;26.932;2022-07-30T07:48:15;11.85;;;10.57;;
7965;SDS011;4028;43.272;26.932;2022-07-30T07:50:42;11.52;;;10.45;;
7965;SDS011;4028;43.272;26.932;2022-07-30T07:53:08;11.85;;;10.02;;
7965;SDS011;4028;43.272;26.932;2022-07-30T07:55:33;11.10;;;10.02;;
7965;SDS011;4028;43.272;26.932;2022-07-30T07:57:59;11.27;;;10.13;;
7965;SDS011;4028;43.272;26.932;2022-07-30T08:00:25;10.63;;;9.65;;
7965;SDS011;4028;43.272;26.932;2022-07-30T08:02:50;11.48;;;9.95;;
7965;SDS011;4028;43.272;26.932;2022-07-30T08:05:16;10.95;;;9.90;;
7965;SDS011;4028;43.272;26.932;2022-07-30T08:07:43;9.65;;;8.68;;
7965;SDS011;4028;43.272;26.932;2022-07-30T08:10:09;10.55;;;9.65;;
7965;SDS011;4028;43.272;26.932;2022-07-30T08:12:38;10.73;;;9.63;;
7965;SDS011;4028;43.272;26.932;2022-07-30T08:15:04;10.85;;;9.85;;
7965;SDS011;4028;43.272;26.932;2022-07-30T08:17:31;11.25;;;10.02;;
7965;SDS011;4028;43.272;26.932;2022-07-30T08:19:57;15.30;;;9.55;;
7965;SDS011;4028;43.272;26.932;2022-07-30T08:22:26;10.95;;;9.82;;
7965;SDS011;4028;43.272;26.932;2022-07-30T08:24:51;10.52;;;9.35;;
7965;SDS011;4028;43.272;26.932;2022-07-30T08:27:17;11.45;;;9.98;;
7965;SDS011;4028;43.272;26.932;2022-07-30T08:29:43;10.02;;;9.13;;
7965;SDS011;4028;43.272;26.932;2022-07-30T08:32:08;11.32;;;10.13;;
7965;SDS011;4028;43.272;26.932;2022-07-30T08:34:34;12.65;;;9.18;;
7965;SDS011;4028;43.272;26.932;2022-07-30T08:36:59;8.88;;;8.05;;
7965;SDS011;4028;43.272;26.932;2022-07-30T08:39:25;8.55;;;7.50;;
7965;SDS011;4028;43.272;26.932;2022-07-30T08:41:50;9.45;;;8.38;;
7965;SDS011;4028;43.272;26.932;2022-07-30T08:44:16;11.50;;;8.45;;
7965;SDS011;4028;43.272;26.932;2022-07-30T08:46:43;9.52;;;7.97;;
7965;SDS011;4028;43.272;26.932;2022-07-30T08:49:10;8.52;;;7.72;;
7965;SDS011;4028;43.272;26.932;2022-07-30T08:51:36;12.50;;;8.93;;
7965;SDS011;4028;43.272;26.932;2022-07-30T08:54:03;8.82;;;7.97;;
7965;SDS011;4028;43.272;26.932;2022-07-30T08:56:29;9.13;;;8.13;;
7965;SDS011;4028;43.272;26.932;2022-07-30T08:58:56;8.75;;;7.95;;
7965;SDS011;4028;43.272;26.932;2022-07-30T09:01:26;8.30;;;7.60;;
7965;SDS011;4028;43.272;26.932;2022-07-30T09:03:52;9.63;;;7.70;;
7965;SDS011;4028;43.272;26.932;2022-07-30T09:06:18;7.57;;;7.05;;
7965;SDS011;4028;43.272;26.932;2022-07-30T09:08:43;8.13;;;7.47;;
7965;SDS011;4028;43.272;26.932;2022-07-30T09:11:09;11.20;;;8.00;;
7965;SDS011;4028;43.272;26.932;2022-07-30T09:13:36;8.90;;;8.10;;
7965;SDS011;4028;43.272;26.932;2022-07-30T09:16:05;8.15;;;7.25;;
7965;SDS011;4028;43.272;26.932;2022-07-30T09:18:38;8.05;;;6.88;;
7965;SDS011;4028;43.272;26.932;2022-07-30T09:21:17;8.20;;;7.50;;
7965;SDS011;4028;43.272;26.932;2022-07-30T09:24:01;7.35;;;6.65;;
7965;SDS011;4028;43.272;26.932;2022-07-30T09:26:29;8.43;;;7.57;;
7965;SDS011;4028;43.272;26.932;2022-07-30T09:29:15;8.07;;;7.25;;
7965;SDS011;4028;43.272;26.932;2022-07-30T09:34:37;7.97;;;7.18;;
7965;SDS011;4028;43.272;26.932;2022-07-30T09:39:37;7.72;;;7.10;;
7965;SDS011;4028;43.272;26.932;2022-07-30T09:42:15;8.30;;;7.28;;
7965;SDS011;4028;43.272;26.932;2022-07-30T09:44:43;7.85;;;7.15;;
7965;SDS011;4028;43.272;26.932;2022-07-30T09:47:09;8.85;;;7.95;;
7965;SDS011;4028;43.272;26.932;2022-07-30T09:50:10;8.05;;;6.85;;
7965;SDS011;4028;43.272;26.932;2022-07-30T09:52:38;6.78;;;6.28;;
7965;SDS011;4028;43.272;26.932;2022-07-30T09:55:05;7.45;;;6.85;;
7965;SDS011;4028;43.272;26.932;2022-07-30T09:57:31;7.78;;;7.05;;
7965;SDS011;4028;43.272;26.932;2022-07-30T09:59:57;7.63;;;7.03;;
7965;SDS011;4028;43.272;26.932;2022-07-30T10:02:39;7.50;;;6.90;;
7965;SDS011;4028;43.272;26.932;2022-07-30T10:05:08;7.47;;;6.80;;
7965;SDS011;4028;43.272;26.932;2022-07-30T10:07:34;7.30;;;6.60;;
7965;SDS011;4028;43.272;26.932;2022-07-30T10:10:00;11.88;;;7.45;;
7965;SDS011;4028;43.272;26.932;2022-07-30T10:12:26;8.18;;;6.82;;
7965;SDS011;4028;43.272;26.932;2022-07-30T10:14:52;9.05;;;6.78;;
7965;SDS011;4028;43.272;26.932;2022-07-30T10:17:20;8.75;;;6.72;;
7965;SDS011;4028;43.272;26.932;2022-07-30T10:19:46;7.05;;;6.45;;
7965;SDS011;4028;43.272;26.932;2022-07-30T10:22:12;7.05;;;6.30;;
7965;SDS011;4028;43.272;26.932;2022-07-30T10:24:38;7.95;;;6.88;;
7965;SDS011;4028;43.272;26.932;2022-07-30T10:27:04;7.57;;;6.93;;
7965;SDS011;4028;43.272;26.932;2022-07-30T10:29:33;7.65;;;6.88;;
7965;SDS011;4028;43.272;26.932;2022-07-30T10:32:02;7.82;;;7.22;;
7965;SDS011;4028;43.272;26.932;2022-07-30T10:34:28;7.72;;;7.03;;
7965;SDS011;4028;43.272;26.932;2022-07-30T10:36:54;7.10;;;6.50;;
7965;SDS011;4028;43.272;26.932;2022-07-30T10:39:25;7.75;;;7.00;;
7965;SDS011;4028;43.272;26.932;2022-07-30T10:44:35;7.72;;;6.35;;
7965;SDS011;4028;43.272;26.932;2022-07-30T10:47:06;7.97;;;7.28;;
7965;SDS011;4028;43.272;26.932;2022-07-30T10:49:33;7.38;;;6.75;;
7965;SDS011;4028;43.272;26.932;2022-07-30T10:51:59;7.75;;;6.82;;
7965;SDS011;4028;43.272;26.932;2022-07-30T10:54:34;7.68;;;6.47;;
7965;SDS011;4028;43.272;26.932;2022-07-30T10:57:10;7.45;;;6.75;;
7965;SDS011;4028;43.272;26.932;2022-07-30T11:02:19;7.28;;;6.65;;
7965;SDS011;4028;43.272;26.932;2022-07-30T11:04:46;8.35;;;7.47;;
7965;SDS011;4028;43.272;26.932;2022-07-30T11:09:51;7.55;;;6.53;;
7965;SDS011;4028;43.272;26.932;2022-07-30T11:15:09;7.03;;;6.53;;
7965;SDS011;4028;43.272;26.932;2022-07-30T11:20:33;7.65;;;6.80;;
7965;SDS011;4028;43.272;26.932;2022-07-30T11:23:10;9.15;;;6.68;;
7965;SDS011;4028;43.272;26.932;2022-07-30T11:25:55;7.90;;;6.65;;
7965;SDS011;4028;43.272;26.932;2022-07-30T11:28:34;7.68;;;6.88;;
7965;SDS011;4028;43.272;26.932;2022-07-30T11:31:02;7.70;;;7.03;;
7965;SDS011;4028;43.272;26.932;2022-07-30T11:33:28;7.50;;;6.75;;
7965;SDS011;4028;43.272;26.932;2022-07-30T11:36:10;6.80;;;6.25;;
7965;SDS011;4028;43.272;26.932;2022-07-30T11:39:10;7.32;;;6.63;;
7965;SDS011;4028;43.272;26.932;2022-07-30T11:41:28;8.32;;;6.90;;
7965;SDS011;4028;43.272;26.932;2022-07-30T11:44:23;7.57;;;6.88;;
7965;SDS011;4028;43.272;26.932;2022-07-30T11:46:51;7.40;;;6.72;;
7965;SDS011;4028;43.272;26.932;2022-07-30T11:49:17;8.02;;;7.32;;
7965;SDS011;4028;43.272;26.932;2022-07-30T11:51:44;9.43;;;7.00;;
7965;SDS011;4028;43.272;26.932;2022-07-30T11:54:11;7.82;;;6.82;;
7965;SDS011;4028;43.272;26.932;2022-07-30T11:56:47;6.82;;;6.32;;
7965;SDS011;4028;43.272;26.932;2022-07-30T11:59:17;8.25;;;6.40;;
7965;SDS011;4028;43.272;26.932;2022-07-30T12:01:42;7.15;;;6.50;;
7965;SDS011;4028;43.272;26.932;2022-07-30T12:04:12;6.85;;;6.32;;
7965;SDS011;4028;43.272;26.932;2022-07-30T12:06:44;7.00;;;6.40;;
7965;SDS011;4028;43.272;26.932;2022-07-30T12:09:11;7.40;;;6.32;;
7965;SDS011;4028;43.272;26.932;2022-07-30T12:11:37;9.25;;;6.68;;
7965;SDS011;4028;43.272;26.932;2022-07-30T12:14:02;7.22;;;6.53;;
7965;SDS011;4028;43.272;26.932;2022-07-30T12:16:29;6.68;;;6.13;;
7965;SDS011;4028;43.272;26.932;2022-07-30T12:18:59;7.60;;;6.57;;
7965;SDS011;4028;43.272;26.932;2022-07-30T12:21:29;6.72;;;6.03;;
7965;SDS011;4028;43.272;26.932;2022-07-30T12:24:13;7.75;;;6.40;;
7965;SDS011;4028;43.272;26.932;2022-07-30T12:26:39;6.90;;;6.30;;
7965;SDS011;4028;43.272;26.932;2022-07-30T12:29:07;7.93;;;6.75;;
7965;SDS011;4028;43.272;26.932;2022-07-30T12:31:35;7.10;;;6.50;;
7965;SDS011;4028;43.272;26.932;2022-07-30T12:34:01;6.60;;;6.10;;
7965;SDS011;4028;43.272;26.932;2022-07-30T12:38:53;7.25;;;6.60;;
7965;SDS011;4028;43.272;26.932;2022-07-30T12:41:20;6.55;;;5.95;;
7965;SDS011;4028;43.272;26.932;2022-07-30T12:46:20;7.40;;;5.72;;
7965;SDS011;4028;43.272;26.932;2022-07-30T12:48:47;6.90;;;6.40;;
7965;SDS011;4028;43.272;26.932;2022-07-30T12:51:13;9.15;;;6.57;;
7965;SDS011;4028;43.272;26.932;2022-07-30T12:53:39;6.93;;;6.22;;
7965;SDS011;4028;43.272;26.932;2022-07-30T12:56:11;6.75;;;6.15;;
7965;SDS011;4028;43.272;26.932;2022-07-30T12:58:37;6.85;;;6.32;;
7965;SDS011;4028;43.272;26.932;2022-07-30T13:01:04;6.80;;;5.82;;
7965;SDS011;4028;43.272;26.932;2022-07-30T13:03:29;6.47;;;5.97;;
7965;SDS011;4028;43.272;26.932;2022-07-30T13:06:24;7.60;;;5.97;;
7965;SDS011;4028;43.272;26.932;2022-07-30T13:08:50;6.85;;;5.90;;
7965;SDS011;4028;43.272;26.932;2022-07-30T13:11:18;7.78;;;6.60;;
7965;SDS011;4028;43.272;26.932;2022-07-30T13:13:45;6.47;;;5.97;;
7965;SDS011;4028;43.272;26.932;2022-07-30T13:16:11;7.70;;;6.68;;
7965;SDS011;4028;43.272;26.932;2022-07-30T13:18:37;9.68;;;6.25;;
7965;SDS011;4028;43.272;26.932;2022-07-30T13:21:04;7.43;;;6.25;;
7965;SDS011;4028;43.272;26.932;2022-07-30T13:23:32;7.13;;;6.25;;
7965;SDS011;4028;43.272;26.932;2022-07-30T13:25:58;6.32;;;5.82;;
7965;SDS011;4028;43.272;26.932;2022-07-30T13:28:24;6.78;;;6.10;;
7965;SDS011;4028;43.272;26.932;2022-07-30T13:30:50;9.63;;;5.80;;
7965;SDS011;4028;43.272;26.932;2022-07-30T13:33:16;6.50;;;5.80;;
7965;SDS011;4028;43.272;26.932;2022-07-30T13:35:41;7.40;;;6.07;;
7965;SDS011;4028;43.272;26.932;2022-07-30T13:38:07;7.65;;;6.20;;
7965;SDS011;4028;43.272;26.932;2022-07-30T13:40:35;8.30;;;6.35;;
7965;SDS011;4028;43.272;26.932;2022-07-30T13:43:01;9.30;;;6.15;;
7965;SDS011;4028;43.272;26.932;2022-07-30T13:45:28;6.20;;;5.70;;
7965;SDS011;4028;43.272;26.932;2022-07-30T13:47:54;6.35;;;5.85;;
7965;SDS011;4028;43.272;26.932;2022-07-30T13:50:20;6.88;;;6.10;;
7965;SDS011;4028;43.272;26.932;2022-07-30T13:52:46;8.00;;;5.50;;
7965;SDS011;4028;43.272;26.932;2022-07-30T13:55:11;6.57;;;5.90;;
7965;SDS011;4028;43.272;26.932;2022-07-30T13:57:37;9.32;;;6.43;;
7965;SDS011;4028;43.272;26.932;2022-07-30T14:00:03;10.05;;;6.32;;
7965;SDS011;4028;43.272;26.932;2022-07-30T14:02:30;6.43;;;5.80;;
7965;SDS011;4028;43.272;26.932;2022-07-30T14:04:56;8.90;;;6.15;;
7965;SDS011;4028;43.272;26.932;2022-07-30T14:07:21;6.32;;;5.72;;
7965;SDS011;4028;43.272;26.932;2022-07-30T14:09:47;6.20;;;5.70;;
7965;SDS011;4028;43.272;26.932;2022-07-30T14:12:13;7.05;;;5.70;;
7965;SDS011;4028;43.272;26.932;2022-07-30T14:14:38;9.63;;;5.90;;
7965;SDS011;4028;43.272;26.932;2022-07-30T14:17:04;6.10;;;5.65;;
7965;SDS011;4028;43.272;26.932;2022-07-30T14:19:29;7.90;;;5.95;;
7965;SDS011;4028;43.272;26.932;2022-07-30T14:21:55;7.32;;;5.85;;
7965;SDS011;4028;43.272;26.932;2022-07-30T14:24:21;7.05;;;6.47;;
7965;SDS011;4028;43.272;26.932;2022-07-30T14:26:47;6.40;;;5.88;;
7965;SDS011;4028;43.272;26.932;2022-07-30T14:29:15;9.25;;;6.63;;
7965;SDS011;4028;43.272;26.932;2022-07-30T14:31:41;6.97;;;6.32;;
7965;SDS011;4028;43.272;26.932;2022-07-30T14:34:06;6.68;;;6.10;;
7965;SDS011;4028;43.272;26.932;2022-07-30T14:36:32;7.50;;;6.85;;
7965;SDS011;4028;43.272;26.932;2022-07-30T14:38:58;8.00;;;6.35;;
7965;SDS011;4028;43.272;26.932;2022-07-30T14:41:26;10.38;;;6.47;;
7965;SDS011;4028;43.272;26.932;2022-07-30T14:43:52;7.03;;;5.65;;
7965;SDS011;4028;43.272;26.932;2022-07-30T14:46:18;8.63;;;6.25;;
7965;SDS011;4028;43.272;26.932;2022-07-30T14:48:43;10.70;;;6.47;;
7965;SDS011;4028;43.272;26.932;2022-07-30T14:51:09;6.60;;;5.95;;
7965;SDS011;4028;43.272;26.932;2022-07-30T14:53:35;6.45;;;5.55;;
7965;SDS011;4028;43.272;26.932;2022-07-30T14:56:01;6.13;;;5.53;;
7965;SDS011;4028;43.272;26.932;2022-07-30T14:58:26;6.00;;;5.45;;
7965;SDS011;4028;43.272;26.932;2022-07-30T15:00:52;6.78;;;5.88;;
7965;SDS011;4028;43.272;26.932;2022-07-30T15:03:18;10.68;;;5.68;;
7965;SDS011;4028;43.272;26.932;2022-07-30T15:05:44;8.07;;;5.85;;
7965;SDS011;4028;43.272;26.932;2022-07-30T15:08:09;10.23;;;5.78;;
7965;SDS011;4028;43.272;26.932;2022-07-30T15:10:35;6.13;;;4.95;;
7965;SDS011;4028;43.272;26.932;2022-07-30T15:13:00;5.50;;;5.00;;
7965;SDS011;4028;43.272;26.932;2022-07-30T15:15:26;6.68;;;4.82;;
7965;SDS011;4028;43.272;26.932;2022-07-30T15:17:51;7.93;;;5.28;;
7965;SDS011;4028;43.272;26.932;2022-07-30T15:20:17;6.65;;;5.05;;
7965;SDS011;4028;43.272;26.932;2022-07-30T15:22:43;4.93;;;4.53;;
7965;SDS011;4028;43.272;26.932;2022-07-30T15:25:08;6.50;;;4.50;;
7965;SDS011;4028;43.272;26.932;2022-07-30T15:27:34;5.75;;;5.18;;
7965;SDS011;4028;43.272;26.932;2022-07-30T15:29:59;6.43;;;5.30;;